createdAt,value
2023-04-13T00:00:45.349Z,7.50
2023-04-13T00:03:13.671Z,7.50
2023-04-13T00:05:41.811Z,7.50
2023-04-13T00:08:09.956Z,7.50
2023-04-13T00:10:41.236Z,7.50
2023-04-13T00:13:10.843Z,7.50
2023-04-13T00:15:42.160Z,7.60
2023-04-13T00:18:11.298Z,7.50
2023-04-13T00:20:41.166Z,7.60
2023-04-13T00:23:09.271Z,7.50
2023-04-13T00:25:36.928Z,7.50
2023-04-13T00:28:06.447Z,7.50
2023-04-13T00:30:34.276Z,7.60
2023-04-13T00:33:05.659Z,7.60
2023-04-13T00:35:33.632Z,7.60
2023-04-13T00:38:03.385Z,7.60
2023-04-13T00:40:31.454Z,7.60
2023-04-13T00:43:01.167Z,7.50
2023-04-13T00:45:29.512Z,7.50
2023-04-13T00:47:58.453Z,7.50
2023-04-13T00:50:26.233Z,7.50
2023-04-13T00:52:54.054Z,7.50
2023-04-13T00:55:22.072Z,7.60
2023-04-13T00:57:50.716Z,7.50
2023-04-13T01:00:19.186Z,7.60
2023-04-13T01:02:47.553Z,7.60
2023-04-13T01:05:17.129Z,7.60
2023-04-13T01:08:11.688Z,7.60
2023-04-13T01:11:03.584Z,7.60
2023-04-13T01:13:59.358Z,7.70
2023-04-13T01:16:34.675Z,7.70
2023-04-13T01:19:06.277Z,7.70
2023-04-13T01:21:35.720Z,7.70
2023-04-13T01:24:22.536Z,7.70
2023-04-13T01:26:58.574Z,7.70
2023-04-13T01:29:27.671Z,7.70
2023-04-13T01:31:56.069Z,7.70
2023-04-13T01:34:25.273Z,7.60
2023-04-13T01:36:54.003Z,7.60
2023-04-13T01:39:22.191Z,7.60
2023-04-13T01:42:00.702Z,7.60
2023-04-13T01:44:32.484Z,7.60
2023-04-13T01:47:16.366Z,7.60
2023-04-13T01:50:25.958Z,7.60
2023-04-13T01:53:31.530Z,7.60
2023-04-13T01:56:01.190Z,7.60
2023-04-13T01:58:29.653Z,7.60
2023-04-13T02:01:06.328Z,7.60
2023-04-13T02:03:34.657Z,7.60
2023-04-13T02:06:03.363Z,7.60
2023-04-13T02:08:33.685Z,7.60
2023-04-13T02:11:02.220Z,7.70
2023-04-13T02:13:30.683Z,7.70
2023-04-13T02:15:59.417Z,7.70
2023-04-13T02:18:27.374Z,7.70
2023-04-13T02:21:08.464Z,7.60
2023-04-13T02:23:37.706Z,7.70
2023-04-13T02:26:08.690Z,7.60
2023-04-13T02:28:37.959Z,7.60
2023-04-13T02:31:06.235Z,7.60
2023-04-13T02:33:35.815Z,7.70
2023-04-13T02:36:04.326Z,7.60
2023-04-13T02:38:39.540Z,7.60
2023-04-13T02:41:14.148Z,7.60
2023-04-13T02:43:43.771Z,7.50
2023-04-13T02:46:12.282Z,7.60
2023-04-13T02:48:42.392Z,7.60
2023-04-13T02:51:10.043Z,7.60
2023-04-13T02:53:41.556Z,7.70
2023-04-13T02:56:09.870Z,7.60
2023-04-13T02:58:38.593Z,7.60
2023-04-13T03:01:12.134Z,7.50
2023-04-13T03:03:41.974Z,7.50
2023-04-13T03:06:10.267Z,7.50
2023-04-13T03:08:48.087Z,7.50
2023-04-13T03:11:23.808Z,7.60
2023-04-13T03:14:23.127Z,7.60
2023-04-13T03:17:00.062Z,7.70
2023-04-13T03:19:36.228Z,7.70
2023-04-13T03:22:05.152Z,7.70
2023-04-13T03:24:35.909Z,7.80
2023-04-13T03:27:08.327Z,7.90
2023-04-13T03:29:41.747Z,7.80
2023-04-13T03:32:13.506Z,7.80
2023-04-13T03:34:44.723Z,7.80
2023-04-13T03:37:14.907Z,7.80
2023-04-13T03:39:42.817Z,7.80
2023-04-13T03:42:14.601Z,7.80
2023-04-13T03:44:48.687Z,7.90
2023-04-13T03:47:16.746Z,7.90
2023-04-13T03:49:44.351Z,7.90
2023-04-13T03:52:12.076Z,8.00
2023-04-13T03:54:44.829Z,8.00
2023-04-13T03:57:12.888Z,7.90
2023-04-13T03:59:41.059Z,7.90
2023-04-13T04:02:12.031Z,7.90
2023-04-13T04:04:42.178Z,7.90
2023-04-13T04:07:11.210Z,8.00
2023-04-13T04:09:39.911Z,7.90
2023-04-13T04:12:07.964Z,8.00
2023-04-13T04:14:40.846Z,8.00
2023-04-13T04:17:15.397Z,8.00
2023-04-13T04:19:43.960Z,8.00
2023-04-13T04:22:14.077Z,8.00
2023-04-13T04:24:43.312Z,8.00
2023-04-13T04:27:11.490Z,8.00
2023-04-13T04:29:39.343Z,8.00
2023-04-13T04:32:18.785Z,8.10
2023-04-13T04:34:48.267Z,8.00
2023-04-13T04:37:21.366Z,8.00
2023-04-13T04:40:09.855Z,8.00
2023-04-13T04:42:39.222Z,7.90
2023-04-13T04:45:15.241Z,7.80
2023-04-13T04:47:48.649Z,7.80
2023-04-13T04:50:20.650Z,7.80
2023-04-13T04:52:56.704Z,7.80
2023-04-13T04:55:25.951Z,7.80
2023-04-13T04:57:53.732Z,7.80
2023-04-13T05:00:26.475Z,7.80
2023-04-13T05:03:02.261Z,7.90
2023-04-13T05:05:32.912Z,7.90
2023-04-13T05:08:05.881Z,7.90
2023-04-13T05:10:42.828Z,8.00
2023-04-13T05:13:10.426Z,8.00
2023-04-13T05:15:38.064Z,8.00
2023-04-13T05:18:06.477Z,8.10
2023-04-13T05:20:35.079Z,8.10
2023-04-13T05:23:09.863Z,8.20
2023-04-13T05:25:45.049Z,8.20
2023-04-13T05:28:19.399Z,8.30
2023-04-13T05:30:48.814Z,8.50
2023-04-13T05:33:17.386Z,8.50
2023-04-13T05:35:47.981Z,8.60
2023-04-13T05:38:16.481Z,8.60
2023-04-13T05:40:45.209Z,8.90
2023-04-13T05:43:14.185Z,9.20
2023-04-13T05:45:47.995Z,9.20
2023-04-13T05:48:16.564Z,9.10
2023-04-13T05:50:46.414Z,9.00
2023-04-13T05:53:14.976Z,9.00
2023-04-13T05:55:52.787Z,9.00
2023-04-13T05:58:22.049Z,9.00
2023-04-13T06:00:56.630Z,9.10
2023-04-13T06:03:30.884Z,9.10
2023-04-13T06:05:59.577Z,9.10
2023-04-13T06:08:32.641Z,9.10
2023-04-13T06:11:02.079Z,9.30
2023-04-13T06:13:31.856Z,9.30
2023-04-13T06:15:59.841Z,9.30
2023-04-13T06:18:27.922Z,9.30
2023-04-13T06:20:57.286Z,9.30
2023-04-13T06:23:24.914Z,9.40
2023-04-13T06:25:57.206Z,9.50
2023-04-13T06:28:43.078Z,9.50
2023-04-13T06:31:13.684Z,9.60
2023-04-13T06:33:43.408Z,9.70
2023-04-13T06:36:12.728Z,9.70
2023-04-13T06:38:40.969Z,9.80
2023-04-13T06:41:13.442Z,9.90
2023-04-13T06:43:44.140Z,9.90
2023-04-13T06:46:32.131Z,10.00
2023-04-13T06:49:07.697Z,10.00
2023-04-13T06:51:36.774Z,10.10
2023-04-13T06:54:05.176Z,10.10
2023-04-13T06:56:32.792Z,10.10
2023-04-13T06:59:03.018Z,10.10
2023-04-13T07:01:32.867Z,10.10
2023-04-13T07:04:02.585Z,10.10
2023-04-13T07:06:32.464Z,10.30
2023-04-13T07:09:02.042Z,10.40
2023-04-13T07:11:31.420Z,10.40
2023-04-13T07:13:59.526Z,10.40
2023-04-13T07:16:27.252Z,10.50
2023-04-13T07:18:55.158Z,10.40
2023-04-13T07:21:22.732Z,10.40
2023-04-13T07:23:57.498Z,10.50
2023-04-13T07:26:25.211Z,10.50
2023-04-13T07:28:53.546Z,10.50
2023-04-13T07:31:24.565Z,10.60
2023-04-13T07:33:54.543Z,10.70
2023-04-13T07:36:28.811Z,10.70
2023-04-13T07:39:01.696Z,10.70
2023-04-13T07:41:31.725Z,10.80
2023-04-13T07:44:05.683Z,10.90
2023-04-13T07:46:33.990Z,11.10
2023-04-13T07:49:01.722Z,11.10
2023-04-13T07:51:35.163Z,11.20
2023-04-13T07:54:03.438Z,11.30
2023-04-13T07:56:33.482Z,11.60
2023-04-13T07:59:02.120Z,11.70
2023-04-13T08:01:30.375Z,11.90
2023-04-13T08:04:02.384Z,12.20
2023-04-13T08:06:30.132Z,12.20
2023-04-13T08:08:58.026Z,12.50
2023-04-13T08:11:26.179Z,12.60
2023-04-13T08:14:00.860Z,12.80
2023-04-13T08:16:33.568Z,12.70
2023-04-13T08:19:04.135Z,12.50
2023-04-13T08:21:38.753Z,12.70
2023-04-13T08:24:06.717Z,12.80
2023-04-13T08:26:34.473Z,12.60
2023-04-13T08:29:02.495Z,13.00
2023-04-13T08:31:30.563Z,13.00
2023-04-13T08:34:03.178Z,13.40
2023-04-13T08:36:32.085Z,13.50
2023-04-13T08:39:10.454Z,13.70
2023-04-13T08:41:44.152Z,13.70
2023-04-13T08:44:15.943Z,14.00
2023-04-13T08:46:47.004Z,14.30
2023-04-13T08:49:17.960Z,14.40
2023-04-13T08:52:11.608Z,14.50
2023-04-13T08:54:41.808Z,14.40
2023-04-13T08:57:17.936Z,14.20
2023-04-13T08:59:46.913Z,14.60
2023-04-13T09:02:14.828Z,14.70
2023-04-13T09:04:57.936Z,14.70
2023-04-13T09:07:32.362Z,14.80
2023-04-13T09:10:06.295Z,14.50
2023-04-13T09:12:35.097Z,14.70
2023-04-13T09:15:06.528Z,14.80
2023-04-13T09:17:39.204Z,14.70
2023-04-13T09:20:23.208Z,14.40
2023-04-13T09:22:52.089Z,14.70
2023-04-13T09:25:29.490Z,14.60
2023-04-13T09:27:57.664Z,14.50
2023-04-13T09:30:27.443Z,14.50
2023-04-13T09:33:08.677Z,14.80
2023-04-13T09:35:37.226Z,15.30
2023-04-13T09:38:07.409Z,15.10
2023-04-13T09:40:38.504Z,15.30
2023-04-13T09:43:10.377Z,15.20
2023-04-13T09:45:44.525Z,15.30
2023-04-13T09:48:22.787Z,15.20
2023-04-13T09:51:05.651Z,15.20
2023-04-13T09:53:44.848Z,15.10
2023-04-13T09:56:12.778Z,15.00
2023-04-13T09:58:47.734Z,15.10
2023-04-13T10:01:15.519Z,14.80
2023-04-13T10:03:44.191Z,14.90
2023-04-13T10:06:13.048Z,15.00
2023-04-13T10:08:42.812Z,15.00
2023-04-13T10:11:13.740Z,14.80
2023-04-13T10:14:09.355Z,14.80
2023-04-13T10:17:07.716Z,14.50
2023-04-13T10:19:41.350Z,14.40
2023-04-13T10:22:10.551Z,14.40
2023-04-13T10:24:40.243Z,14.60
2023-04-13T10:27:22.177Z,14.40
2023-04-13T10:29:50.291Z,14.40
2023-04-13T10:32:28.501Z,14.30
2023-04-13T10:34:56.230Z,14.50
2023-04-13T10:37:27.469Z,14.30
2023-04-13T10:40:06.480Z,14.20
2023-04-13T10:45:20.931Z,14.50
2023-04-13T10:47:48.802Z,14.60
2023-04-13T10:50:29.348Z,14.40
2023-04-13T10:53:09.144Z,14.40
2023-04-13T10:55:36.826Z,14.40
2023-04-13T10:58:17.328Z,14.50
2023-04-13T11:00:48.887Z,14.70
2023-04-13T11:03:19.103Z,14.60
2023-04-13T11:05:59.513Z,14.60
2023-04-13T11:08:28.930Z,14.60
2023-04-13T11:10:57.454Z,14.70
2023-04-13T11:13:25.661Z,14.70
2023-04-13T11:16:05.197Z,14.70
2023-04-13T11:18:33.134Z,14.90
2023-04-13T11:21:05.882Z,15.00
2023-04-13T11:23:36.453Z,15.20
2023-04-13T11:26:04.887Z,15.00
2023-04-13T11:28:42.149Z,15.20
2023-04-13T11:31:11.701Z,15.20
2023-04-13T11:33:40.919Z,15.00
2023-04-13T11:36:09.933Z,15.00
2023-04-13T11:38:39.934Z,15.20
2023-04-13T11:41:16.338Z,15.00
2023-04-13T11:43:49.042Z,15.00
2023-04-13T11:46:27.827Z,15.00
2023-04-13T11:48:56.143Z,15.00
2023-04-13T11:51:25.616Z,15.10
2023-04-13T11:53:53.539Z,14.90
2023-04-13T11:56:22.300Z,14.70
2023-04-13T11:58:53.305Z,14.80
2023-04-13T12:01:27.166Z,14.60
2023-04-13T12:04:15.108Z,14.70
2023-04-13T12:06:47.238Z,14.80
2023-04-13T12:09:18.045Z,14.70
2023-04-13T12:12:15.409Z,14.80
2023-04-13T12:17:37.472Z,14.90
2023-04-13T12:20:03.669Z,15.00
2023-04-13T12:22:51.464Z,15.00
2023-04-13T12:25:25.177Z,15.00
2023-04-13T12:27:53.987Z,15.00
2023-04-13T12:30:22.778Z,15.00
2023-04-13T12:32:55.832Z,15.00
2023-04-13T12:35:24.193Z,15.10
2023-04-13T12:37:52.855Z,15.20
2023-04-13T12:40:20.518Z,15.20
2023-04-13T12:42:49.078Z,15.10
2023-04-13T12:45:17.016Z,15.00
2023-04-13T12:47:44.776Z,15.20
2023-04-13T12:50:12.799Z,15.30
2023-04-13T12:52:43.062Z,15.20
2023-04-13T12:55:11.391Z,15.30
2023-04-13T12:57:39.942Z,15.30
2023-04-13T13:00:11.289Z,15.30
2023-04-13T13:02:39.549Z,15.20
2023-04-13T13:05:09.482Z,15.50
2023-04-13T13:07:37.285Z,15.40
2023-04-13T13:10:15.212Z,15.40
2023-04-13T13:12:49.937Z,15.50
2023-04-13T13:15:17.542Z,15.40
2023-04-13T13:17:46.537Z,15.50
2023-04-13T13:20:14.206Z,15.60
2023-04-13T13:22:42.670Z,15.50
2023-04-13T13:25:10.809Z,15.40
2023-04-13T13:30:10.166Z,15.60
2023-04-13T13:32:37.843Z,15.50
2023-04-13T13:35:09.296Z,15.50
2023-04-13T13:37:37.145Z,15.30
2023-04-13T13:40:13.231Z,15.30
2023-04-13T13:42:51.247Z,15.40
2023-04-13T13:45:23.408Z,15.50
2023-04-13T13:47:55.080Z,15.40
2023-04-13T13:50:43.151Z,15.50
2023-04-13T13:53:11.926Z,15.60
2023-04-13T13:55:42.414Z,15.40
2023-04-13T13:58:10.081Z,15.50
2023-04-13T14:00:38.118Z,15.50
2023-04-13T14:03:06.438Z,15.60
2023-04-13T14:05:34.476Z,15.40
2023-04-13T14:08:02.134Z,15.20
2023-04-13T14:10:29.835Z,15.20
2023-04-13T14:12:59.237Z,15.10
2023-04-13T14:15:26.957Z,15.30
2023-04-13T14:18:09.008Z,15.30
2023-04-13T14:20:39.796Z,15.20
2023-04-13T14:23:09.713Z,15.10
2023-04-13T14:25:41.226Z,15.10
2023-04-13T14:28:11.605Z,15.20
2023-04-13T14:30:42.405Z,15.20
2023-04-13T14:33:10.142Z,15.20
2023-04-13T14:35:39.259Z,15.10
2023-04-13T14:38:08.361Z,15.10
2023-04-13T14:40:36.303Z,15.10
2023-04-13T14:43:03.967Z,15.10
2023-04-13T14:45:32.266Z,15.10
2023-04-13T14:47:59.997Z,15.00
2023-04-13T14:50:29.044Z,15.10
2023-04-13T14:52:56.782Z,15.10
2023-04-13T14:55:24.433Z,15.00
2023-04-13T14:57:52.138Z,15.00
2023-04-13T15:00:26.394Z,15.00
2023-04-13T15:02:55.451Z,15.00
2023-04-13T15:05:23.812Z,15.10
2023-04-13T15:07:51.599Z,15.10
2023-04-13T15:10:19.712Z,15.00
2023-04-13T15:12:48.390Z,14.90
2023-04-13T15:15:16.416Z,14.90
2023-04-13T15:17:44.206Z,14.80
2023-04-13T15:20:12.287Z,14.80
2023-04-13T15:22:39.869Z,14.80
2023-04-13T15:25:07.794Z,14.80
2023-04-13T15:27:35.584Z,14.80
2023-04-13T15:30:04.191Z,14.70
2023-04-13T15:32:34.427Z,14.70
2023-04-13T15:35:02.425Z,14.60
2023-04-13T15:37:30.104Z,14.60
2023-04-13T15:39:57.942Z,14.70
2023-04-13T15:42:26.387Z,14.70
2023-04-13T15:44:55.402Z,14.60
2023-04-13T15:47:23.135Z,14.40
2023-04-13T15:49:50.958Z,14.20
2023-04-13T15:52:18.541Z,14.20
2023-04-13T15:54:46.326Z,14.30
2023-04-13T15:57:15.805Z,14.30
2023-04-13T15:59:44.040Z,14.30
2023-04-13T16:02:11.923Z,14.40
2023-04-13T16:04:39.744Z,14.40
2023-04-13T16:07:13.595Z,14.40
2023-04-13T16:09:48.120Z,13.90
2023-04-13T16:12:17.628Z,13.60
2023-04-13T16:14:45.405Z,13.60
2023-04-13T16:17:15.057Z,13.60
2023-04-13T16:19:46.971Z,13.70
2023-04-13T16:22:16.733Z,13.60
2023-04-13T16:24:44.390Z,13.20
2023-04-13T16:27:12.119Z,13.00
2023-04-13T16:29:41.938Z,13.10
2023-04-13T16:32:09.988Z,13.00
2023-04-13T16:34:38.566Z,12.90
2023-04-13T16:37:07.261Z,13.00
2023-04-13T16:39:35.124Z,12.80
2023-04-13T16:42:02.794Z,12.80
2023-04-13T16:44:30.539Z,12.90
2023-04-13T16:46:58.441Z,13.00
2023-04-13T16:49:26.446Z,12.50
2023-04-13T16:51:54.085Z,12.50
2023-04-13T16:54:21.950Z,12.50
2023-04-13T16:56:50.449Z,12.30
2023-04-13T16:59:18.218Z,12.40
2023-04-13T17:01:46.185Z,12.30
2023-04-13T17:04:14.337Z,12.50
2023-04-13T17:06:42.525Z,12.40
2023-04-13T17:09:10.194Z,12.40
2023-04-13T17:11:37.895Z,12.20
2023-04-13T17:14:05.799Z,12.10
2023-04-13T17:16:33.725Z,12.10
2023-04-13T17:19:02.599Z,12.10
2023-04-13T17:21:31.844Z,12.00
2023-04-13T17:24:00.907Z,11.90
2023-04-13T17:26:29.476Z,12.00
2023-04-13T17:28:58.328Z,11.80
2023-04-13T17:31:26.908Z,11.70
2023-04-13T17:33:54.963Z,11.40
2023-04-13T17:36:23.660Z,11.10
2023-04-13T17:38:51.789Z,11.20
2023-04-13T17:41:19.802Z,11.10
2023-04-13T17:43:48.402Z,11.20
2023-04-13T17:46:16.997Z,11.40
2023-04-13T17:48:47.183Z,11.30
2023-04-13T17:51:15.425Z,11.20
2023-04-13T17:53:43.946Z,11.20
2023-04-13T17:56:16.402Z,11.10
2023-04-13T17:58:44.630Z,10.90
2023-04-13T18:01:16.953Z,11.00
2023-04-13T18:03:46.465Z,11.00
2023-04-13T18:06:14.842Z,11.00
2023-04-13T18:08:43.770Z,11.10
2023-04-13T18:11:13.070Z,11.10
2023-04-13T18:13:42.301Z,11.20
2023-04-13T18:16:17.076Z,11.10
2023-04-13T18:18:46.616Z,11.00
2023-04-13T18:21:16.417Z,11.10
2023-04-13T18:23:45.048Z,11.10
2023-04-13T18:26:13.349Z,10.80
2023-04-13T18:28:41.622Z,10.70
2023-04-13T18:31:10.050Z,10.60
2023-04-13T18:33:38.709Z,10.80
2023-04-13T18:36:08.418Z,10.80
2023-04-13T18:38:39.701Z,10.70
2023-04-13T18:41:08.902Z,10.70
2023-04-13T18:43:40.011Z,10.50
2023-04-13T18:46:10.654Z,10.40
2023-04-13T18:48:38.631Z,10.30
2023-04-13T18:51:10.421Z,10.50
2023-04-13T18:53:40.198Z,10.50
2023-04-13T18:56:09.254Z,10.50
2023-04-13T18:58:42.170Z,10.50
2023-04-13T19:01:21.576Z,10.50
2023-04-13T19:03:53.236Z,10.40
2023-04-13T19:06:23.499Z,10.40
2023-04-13T19:08:53.024Z,10.40
2023-04-13T19:11:28.076Z,10.40
2023-04-13T19:13:56.180Z,10.50
2023-04-13T19:16:25.292Z,10.50
2023-04-13T19:18:53.878Z,10.60
2023-04-13T19:21:24.364Z,10.30
2023-04-13T19:23:51.972Z,10.10
2023-04-13T19:26:22.932Z,10.10
2023-04-13T19:28:53.311Z,10.10
2023-04-13T19:31:23.434Z,10.20
2023-04-13T19:33:53.284Z,10.20
2023-04-13T19:36:26.063Z,10.10
2023-04-13T19:38:56.324Z,10.20
2023-04-13T19:41:24.516Z,10.20
2023-04-13T19:43:53.452Z,10.40
2023-04-13T19:46:23.647Z,10.40
2023-04-13T19:48:52.647Z,10.40
2023-04-13T19:51:22.525Z,10.30
2023-04-13T19:53:50.881Z,10.40
2023-04-13T19:56:21.937Z,10.40
2023-04-13T19:58:50.575Z,10.40
2023-04-13T20:01:21.843Z,10.00
2023-04-13T20:03:50.353Z,9.80
2023-04-13T20:06:20.389Z,9.90
2023-04-13T20:08:49.113Z,10.10
2023-04-13T20:11:17.977Z,10.10
2023-04-13T20:13:46.776Z,10.00
2023-04-13T20:16:14.870Z,9.90
2023-04-13T20:18:45.060Z,10.10
2023-04-13T20:21:14.060Z,10.10
2023-04-13T20:23:41.861Z,9.90
2023-04-13T20:26:10.294Z,9.80
2023-04-13T20:28:39.505Z,10.00
2023-04-13T20:31:08.598Z,10.00
2023-04-13T20:33:36.592Z,10.00
2023-04-13T20:36:04.412Z,10.00
2023-04-13T20:38:36.568Z,10.00
2023-04-13T20:41:04.757Z,10.00
2023-04-13T20:43:32.844Z,10.10
2023-04-13T20:46:00.647Z,10.30
2023-04-13T20:51:01.942Z,10.40
2023-04-13T20:53:29.985Z,10.40
2023-04-13T20:55:58.523Z,10.30
2023-04-13T20:58:26.241Z,10.20
2023-04-13T21:00:55.417Z,10.20
2023-04-13T21:03:24.215Z,10.20
2023-04-13T21:05:52.854Z,10.30
2023-04-13T21:08:21.179Z,10.30
2023-04-13T21:13:35.180Z,10.40
2023-04-13T21:16:02.872Z,10.40
2023-04-13T21:18:30.576Z,10.50
2023-04-13T21:21:13.437Z,10.50
2023-04-13T21:23:41.272Z,10.60
2023-04-13T21:26:08.894Z,10.50
2023-04-13T21:28:36.533Z,10.60
2023-04-13T21:31:04.146Z,10.50
2023-04-13T21:33:32.518Z,10.50
2023-04-13T21:36:51.386Z,10.60
2023-04-13T21:38:48.333Z,10.50
2023-04-13T21:41:20.580Z,10.50
2023-04-13T21:43:48.527Z,10.60
2023-04-13T21:46:16.673Z,10.50
2023-04-13T21:48:44.228Z,10.40
2023-04-13T21:51:11.881Z,10.50
2023-04-13T21:53:39.762Z,10.60
2023-04-13T21:56:08.035Z,10.50
2023-04-13T21:58:41.109Z,10.60
2023-04-13T22:01:09.839Z,10.60
2023-04-13T22:03:38.620Z,10.50
2023-04-13T22:06:08.304Z,10.50
2023-04-13T22:08:36.565Z,10.50
2023-04-13T22:11:04.570Z,10.40
2023-04-13T22:13:32.235Z,10.50
2023-04-13T22:15:59.883Z,10.40
2023-04-13T22:18:27.832Z,10.30
2023-04-13T22:20:55.535Z,10.30
2023-04-13T22:23:23.094Z,10.20
2023-04-13T22:26:03.702Z,10.20
2023-04-13T22:28:32.054Z,10.20
2023-04-13T22:31:09.752Z,10.20
2023-04-13T22:33:38.502Z,10.20
2023-04-13T22:36:07.261Z,10.20
2023-04-13T22:38:34.972Z,10.20
2023-04-13T22:41:06.771Z,10.20
2023-04-13T22:43:34.447Z,10.00
2023-04-13T22:46:02.084Z,9.90
2023-04-13T22:48:30.040Z,10.00
2023-04-13T22:51:00.533Z,9.70
2023-04-13T22:53:28.383Z,9.70
2023-04-13T22:55:56.487Z,9.60
2023-04-13T22:58:24.100Z,9.60
2023-04-13T23:00:51.835Z,9.60
2023-04-13T23:03:19.635Z,9.30
2023-04-13T23:05:47.395Z,9.20
2023-04-13T23:08:14.955Z,9.30
2023-04-13T23:10:42.533Z,9.40
2023-04-13T23:13:10.106Z,9.40
2023-04-13T23:15:39.465Z,9.40
2023-04-13T23:18:07.060Z,9.40
2023-04-13T23:20:34.718Z,9.40
2023-04-13T23:23:02.343Z,9.30
2023-04-13T23:25:30.076Z,9.30
2023-04-13T23:27:57.667Z,9.20
2023-04-13T23:30:25.411Z,9.20
2023-04-13T23:32:53.075Z,9.30
2023-04-13T23:35:20.723Z,9.30
2023-04-13T23:37:48.329Z,9.20
2023-04-13T23:40:16.311Z,9.20
2023-04-13T23:42:43.987Z,9.00
2023-04-13T23:45:11.760Z,9.10
2023-04-13T23:47:39.508Z,9.20
2023-04-13T23:50:07.831Z,9.30
2023-04-13T23:52:35.409Z,9.20
2023-04-13T23:55:03.872Z,9.20
2023-04-13T23:57:35.098Z,9.10
